createdAt,value
2017-10-03T00:00:42.432Z,13.90
2017-10-03T00:03:09.917Z,13.90
2017-10-03T00:05:37.410Z,14.00
2017-10-03T00:08:04.917Z,14.00
2017-10-03T00:10:33.161Z,14.00
2017-10-03T00:13:00.627Z,14.00
2017-10-03T00:15:28.104Z,14.00
2017-10-03T00:17:56.359Z,14.00
2017-10-03T00:20:23.834Z,14.00
2017-10-03T00:22:51.307Z,14.10
2017-10-03T00:25:19.534Z,14.10
2017-10-03T00:27:46.990Z,14.10
2017-10-03T00:30:14.446Z,14.10
2017-10-03T00:32:41.923Z,14.20
2017-10-03T00:35:09.392Z,14.20
2017-10-03T00:37:37.711Z,14.20
2017-10-03T00:40:05.190Z,14.20
2017-10-03T00:42:32.654Z,14.20
2017-10-03T00:45:00.106Z,14.30
2017-10-03T00:47:27.681Z,14.30
2017-10-03T00:49:55.166Z,14.30
2017-10-03T00:52:23.389Z,14.30
2017-10-03T00:54:50.878Z,14.30
2017-10-03T00:57:18.339Z,14.30
2017-10-03T00:59:45.797Z,14.30
2017-10-03T01:02:13.297Z,14.30
2017-10-03T01:04:40.733Z,14.20
2017-10-03T01:07:08.186Z,14.20
2017-10-03T01:09:36.438Z,14.10
2017-10-03T01:12:04.761Z,14.00
2017-10-03T01:14:32.301Z,14.00
2017-10-03T01:16:59.798Z,14.00
2017-10-03T01:19:27.254Z,14.00
2017-10-03T01:21:54.729Z,14.00
2017-10-03T01:24:22.217Z,14.00
2017-10-03T01:26:50.858Z,14.00
2017-10-03T01:29:18.323Z,14.10
2017-10-03T01:31:45.810Z,14.10
2017-10-03T01:34:13.261Z,14.10
2017-10-03T01:36:41.489Z,14.10
2017-10-03T01:39:08.974Z,14.10
2017-10-03T01:41:37.081Z,14.10
2017-10-03T01:44:05.333Z,14.00
2017-10-03T01:46:32.789Z,14.10
2017-10-03T01:49:00.250Z,14.10
2017-10-03T01:51:28.518Z,14.10
2017-10-03T01:53:56.774Z,14.00
2017-10-03T01:56:24.243Z,14.00
2017-10-03T01:58:51.737Z,14.00
2017-10-03T02:01:19.208Z,14.00
2017-10-03T02:03:46.663Z,14.00
2017-10-03T02:06:14.123Z,14.00
2017-10-03T02:08:41.590Z,14.00
2017-10-03T02:11:10.450Z,13.90
2017-10-03T02:13:38.676Z,13.90
2017-10-03T02:16:06.254Z,13.90
2017-10-03T02:18:34.415Z,13.90
2017-10-03T02:21:01.879Z,13.90
2017-10-03T02:23:29.352Z,13.90
2017-10-03T02:25:56.837Z,13.80
2017-10-03T02:28:24.295Z,13.80
2017-10-03T02:30:51.764Z,13.70
2017-10-03T02:33:19.237Z,13.60
2017-10-03T02:35:46.730Z,13.60
2017-10-03T02:38:14.199Z,13.50
2017-10-03T02:40:42.435Z,13.50
2017-10-03T02:43:10.786Z,13.40
2017-10-03T02:45:38.256Z,13.40
2017-10-03T02:48:05.715Z,13.30
2017-10-03T02:50:33.178Z,13.40
2017-10-03T02:53:00.655Z,13.40
2017-10-03T02:55:28.925Z,13.30
2017-10-03T02:57:56.382Z,13.30
2017-10-03T03:00:24.716Z,13.30
2017-10-03T03:02:52.249Z,13.30
2017-10-03T03:05:20.479Z,13.30
2017-10-03T03:07:52.158Z,13.20
2017-10-03T03:10:21.135Z,13.20
2017-10-03T03:12:48.674Z,13.20
2017-10-03T03:15:16.134Z,13.20
2017-10-03T03:17:43.623Z,13.10
2017-10-03T03:20:11.099Z,13.10
2017-10-03T03:22:39.370Z,13.10
2017-10-03T03:25:07.590Z,13.00
2017-10-03T03:27:35.097Z,13.00
2017-10-03T03:30:02.698Z,13.00
2017-10-03T03:32:30.267Z,12.90
2017-10-03T03:34:57.727Z,12.90
2017-10-03T03:37:25.222Z,12.90
2017-10-03T03:39:52.700Z,12.90
2017-10-03T03:42:20.945Z,12.80
2017-10-03T03:44:49.256Z,12.80
2017-10-03T03:47:17.516Z,12.70
2017-10-03T03:49:45.751Z,12.70
2017-10-03T03:52:13.215Z,12.60
2017-10-03T03:54:40.671Z,12.60
2017-10-03T03:57:08.138Z,12.60
2017-10-03T03:59:35.610Z,12.60
2017-10-03T04:02:03.087Z,12.50
2017-10-03T04:04:31.334Z,12.50
2017-10-03T04:06:58.805Z,12.50
2017-10-03T04:09:26.615Z,12.40
2017-10-03T04:11:54.092Z,12.40
2017-10-03T04:14:21.556Z,12.40
2017-10-03T04:16:49.014Z,12.40
2017-10-03T04:19:16.664Z,12.40
2017-10-03T04:21:44.139Z,12.40
2017-10-03T04:24:11.720Z,12.50
2017-10-03T04:26:39.971Z,12.50
2017-10-03T04:29:07.447Z,12.50
2017-10-03T04:31:35.158Z,12.50
2017-10-03T04:34:03.644Z,12.50
2017-10-03T04:36:31.108Z,12.50
2017-10-03T04:38:58.584Z,12.50
2017-10-03T04:41:26.159Z,12.60
2017-10-03T04:43:55.148Z,12.70
2017-10-03T04:46:22.621Z,12.70
2017-10-03T04:48:50.537Z,12.70
2017-10-03T04:51:17.995Z,12.80
2017-10-03T04:53:45.467Z,12.80
2017-10-03T04:56:13.263Z,12.80
2017-10-03T04:58:41.483Z,12.80
2017-10-03T05:01:08.975Z,12.80
2017-10-03T05:03:36.447Z,12.80
2017-10-03T05:06:03.911Z,12.80
2017-10-03T05:08:32.148Z,12.90
2017-10-03T05:10:59.624Z,12.90
2017-10-03T05:13:27.134Z,12.90
2017-10-03T05:15:54.693Z,12.90
2017-10-03T05:18:22.212Z,12.90
2017-10-03T05:20:50.179Z,12.90
2017-10-03T05:23:18.432Z,12.90
2017-10-03T05:25:45.931Z,12.90
2017-10-03T05:28:13.400Z,12.90
2017-10-03T05:30:40.887Z,12.80
2017-10-03T05:33:08.360Z,12.80
2017-10-03T05:35:35.826Z,12.80
2017-10-03T05:38:03.306Z,12.80
2017-10-03T05:40:31.571Z,12.80
2017-10-03T05:42:59.036Z,12.80
2017-10-03T05:45:27.305Z,12.60
2017-10-03T05:47:54.771Z,12.60
2017-10-03T05:50:23.768Z,12.40
2017-10-03T05:52:52.043Z,12.30
2017-10-03T05:55:19.532Z,12.30
2017-10-03T05:57:47.047Z,12.30
2017-10-03T06:00:15.295Z,12.40
2017-10-03T06:02:42.869Z,12.30
2017-10-03T06:05:11.363Z,12.40
2017-10-03T06:07:39.624Z,12.30
2017-10-03T06:10:07.154Z,12.30
2017-10-03T06:12:34.628Z,12.30
2017-10-03T06:15:02.155Z,12.30
2017-10-03T06:17:29.668Z,12.30
2017-10-03T06:19:57.900Z,12.40
2017-10-03T06:22:26.269Z,12.40
2017-10-03T06:24:54.126Z,12.40
2017-10-03T06:27:21.671Z,12.50
2017-10-03T06:29:49.182Z,12.50
2017-10-03T06:32:17.448Z,12.50
2017-10-03T06:34:44.966Z,12.50
2017-10-03T06:37:12.432Z,12.40
2017-10-03T06:39:39.896Z,12.40
2017-10-03T06:42:07.936Z,12.40
2017-10-03T06:44:38.318Z,12.40
2017-10-03T06:47:06.802Z,12.40
2017-10-03T06:49:34.474Z,12.50
2017-10-03T06:52:02.412Z,12.50
2017-10-03T06:54:30.453Z,12.50
2017-10-03T06:56:58.486Z,12.50
2017-10-03T06:59:26.272Z,12.50
2017-10-03T07:01:55.080Z,12.50
2017-10-03T07:04:22.866Z,12.50
2017-10-03T07:06:51.175Z,12.50
2017-10-03T07:09:18.726Z,12.50
2017-10-03T07:11:46.187Z,12.60
2017-10-03T07:14:14.331Z,12.60
2017-10-03T07:16:41.842Z,12.80
2017-10-03T07:19:11.532Z,12.90
2017-10-03T07:21:39.467Z,12.90
2017-10-03T07:24:08.205Z,13.10
2017-10-03T07:26:37.443Z,13.10
2017-10-03T07:29:05.352Z,13.10
2017-10-03T07:31:33.580Z,13.10
2017-10-03T07:34:01.052Z,13.10
2017-10-03T07:36:29.162Z,13.10
2017-10-03T07:38:56.855Z,13.10
2017-10-03T07:41:24.576Z,13.20
2017-10-03T07:43:52.584Z,13.20
2017-10-03T07:46:20.037Z,13.30
2017-10-03T07:48:47.536Z,13.30
2017-10-03T07:51:15.087Z,13.30
2017-10-03T07:53:42.561Z,13.20
2017-10-03T07:56:10.875Z,13.10
2017-10-03T07:58:39.106Z,13.30
2017-10-03T08:01:06.700Z,13.30
2017-10-03T08:03:34.936Z,13.60
2017-10-03T08:06:02.416Z,13.50
2017-10-03T08:08:30.171Z,13.70
2017-10-03T08:10:57.635Z,13.80
2017-10-03T08:13:25.115Z,14.00
2017-10-03T08:15:53.346Z,14.30
2017-10-03T08:18:21.087Z,14.30
2017-10-03T08:20:48.564Z,14.40
2017-10-03T08:23:16.046Z,14.50
2017-10-03T08:25:43.620Z,14.60
2017-10-03T08:28:11.851Z,14.80
2017-10-03T08:30:39.330Z,14.70
2017-10-03T08:33:06.809Z,14.80
2017-10-03T08:35:35.081Z,15.00
2017-10-03T08:38:02.557Z,14.90
2017-10-03T08:40:31.006Z,15.20
2017-10-03T08:42:58.569Z,15.30
2017-10-03T08:45:26.850Z,15.20
2017-10-03T08:47:54.310Z,15.20
2017-10-03T08:50:22.543Z,15.10
2017-10-03T08:52:50.015Z,15.10
2017-10-03T08:55:17.483Z,15.10
2017-10-03T08:57:45.046Z,14.80
2017-10-03T09:00:12.528Z,14.70
2017-10-03T09:02:40.786Z,15.20
2017-10-03T09:05:09.077Z,15.60
2017-10-03T09:07:36.563Z,15.60
2017-10-03T09:10:04.022Z,15.80
2017-10-03T09:12:31.499Z,15.70
2017-10-03T09:14:58.970Z,15.60
2017-10-03T09:17:26.593Z,15.50
2017-10-03T09:19:54.098Z,15.50
2017-10-03T09:22:21.615Z,15.50
2017-10-03T09:24:49.436Z,15.50
2017-10-03T09:27:17.687Z,15.40
2017-10-03T09:29:45.168Z,15.40
2017-10-03T09:32:13.448Z,15.30
2017-10-03T09:34:41.688Z,15.20
2017-10-03T09:37:09.156Z,15.20
2017-10-03T09:39:36.644Z,15.10
2017-10-03T09:42:04.907Z,15.00
2017-10-03T09:44:33.152Z,14.80
2017-10-03T09:47:00.628Z,14.70
2017-10-03T09:49:28.137Z,14.30
2017-10-03T09:51:56.503Z,14.00
2017-10-03T09:54:24.003Z,13.70
2017-10-03T09:56:51.476Z,13.70
2017-10-03T09:59:18.946Z,13.60
2017-10-03T10:01:47.833Z,13.60
2017-10-03T10:04:16.088Z,13.70
2017-10-03T10:06:43.556Z,13.70
2017-10-03T10:09:11.035Z,13.80
2017-10-03T10:11:39.267Z,14.10
2017-10-03T10:14:06.736Z,14.00
2017-10-03T10:16:34.845Z,14.10
2017-10-03T10:19:02.356Z,14.10
2017-10-03T10:21:29.866Z,14.20
2017-10-03T10:23:58.272Z,14.20
2017-10-03T10:26:25.763Z,14.20
2017-10-03T12:35:10.202Z,17.10
2017-10-03T12:37:37.669Z,17.10
2017-10-03T12:40:05.909Z,16.80
2017-10-03T12:42:33.374Z,16.70
2017-10-03T12:45:00.834Z,16.60
2017-10-03T12:47:28.308Z,16.60
2017-10-03T12:49:55.838Z,16.60
2017-10-03T12:52:23.309Z,16.50
2017-10-03T12:54:51.135Z,16.40
2017-10-03T12:57:18.595Z,16.30
2017-10-03T12:59:46.307Z,16.30
2017-10-03T13:02:14.608Z,16.20
2017-10-03T13:04:42.111Z,16.20
2017-10-03T13:07:09.679Z,16.10
2017-10-03T13:09:37.156Z,16.00
2017-10-03T13:12:05.386Z,16.30
2017-10-03T13:14:33.695Z,16.30
2017-10-03T13:17:01.217Z,16.50
2017-10-03T13:19:28.709Z,17.00
2017-10-03T13:21:56.188Z,17.70
2017-10-03T13:24:24.422Z,18.30
2017-10-03T13:26:53.837Z,18.30
2017-10-03T13:29:21.398Z,18.10
2017-10-03T13:31:48.872Z,18.10
2017-10-03T13:34:17.139Z,18.10
2017-10-03T13:36:44.616Z,17.80
2017-10-03T13:39:12.859Z,17.30
2017-10-03T13:41:40.336Z,17.30
2017-10-03T13:44:08.571Z,17.20
2017-10-03T13:46:37.736Z,17.20
2017-10-03T13:49:05.270Z,17.50
2017-10-03T13:51:33.531Z,17.60
2017-10-03T13:54:01.087Z,17.50
2017-10-03T13:56:28.619Z,17.40
2017-10-03T13:58:56.089Z,17.30
2017-10-03T14:01:24.356Z,17.30
2017-10-03T14:03:51.830Z,17.50
2017-10-03T14:06:19.296Z,17.30
2017-10-03T14:08:47.358Z,17.20
2017-10-03T14:11:14.815Z,17.30
2017-10-03T14:13:42.291Z,17.50
2017-10-03T14:16:10.552Z,17.40
2017-10-03T14:18:38.020Z,17.40
2017-10-03T14:21:06.955Z,17.10
2017-10-03T14:23:34.436Z,17.10
2017-10-03T14:26:02.903Z,16.80
2017-10-03T14:28:30.368Z,16.70
2017-10-03T14:30:57.852Z,16.60
2017-10-03T14:33:25.312Z,16.80
2017-10-03T14:35:52.848Z,17.00
2017-10-03T14:38:20.317Z,17.30
2017-10-03T14:40:47.791Z,17.40
2017-10-03T14:43:16.034Z,17.50
2017-10-03T14:45:43.512Z,17.40
2017-10-03T14:48:10.964Z,17.60
2017-10-03T14:50:38.544Z,17.50
2017-10-03T14:53:06.020Z,17.60
2017-10-03T14:55:33.543Z,17.60
2017-10-03T14:58:01.092Z,17.60
2017-10-03T15:00:28.558Z,17.50
2017-10-03T15:02:56.130Z,17.30
2017-10-03T15:05:24.364Z,17.10
2017-10-03T15:07:51.825Z,17.10
2017-10-03T15:10:19.329Z,17.00
2017-10-03T15:12:47.577Z,17.20
2017-10-03T15:15:17.021Z,17.10
2017-10-03T15:17:45.544Z,17.10
2017-10-03T15:20:13.000Z,16.90
2017-10-03T15:22:40.485Z,16.90
2017-10-03T15:25:08.043Z,16.80
2017-10-03T15:27:36.284Z,16.60
2017-10-03T15:30:03.752Z,16.50
2017-10-03T15:32:31.207Z,16.40
2017-10-03T15:34:59.468Z,16.10
2017-10-03T15:37:26.928Z,15.90
2017-10-03T15:39:54.401Z,15.80
2017-10-03T15:42:21.903Z,15.90
2017-10-03T15:44:49.360Z,15.90
2017-10-03T15:47:16.819Z,15.90
2017-10-03T15:49:44.297Z,15.90
2017-10-03T15:52:11.758Z,15.80
2017-10-03T15:54:39.211Z,15.80
2017-10-03T15:57:06.740Z,15.80
2017-10-03T15:59:34.206Z,15.70
2017-10-03T16:02:02.949Z,15.70
2017-10-03T16:04:30.507Z,15.60
2017-10-03T16:06:58.631Z,15.60
2017-10-03T16:09:26.162Z,15.50
2017-10-03T16:11:54.404Z,15.40
2017-10-03T16:14:21.926Z,15.40
2017-10-03T16:16:49.386Z,15.40
2017-10-03T16:19:16.887Z,15.40
2017-10-03T16:21:44.455Z,15.40
2017-10-03T16:24:11.903Z,15.30
2017-10-03T16:26:39.377Z,15.20
2017-10-03T16:29:07.608Z,15.00
2017-10-03T16:31:35.074Z,15.00
2017-10-03T16:34:02.648Z,14.90
2017-10-03T16:36:30.129Z,14.90
2017-10-03T16:38:58.355Z,14.90
2017-10-03T16:41:25.823Z,14.80
2017-10-03T16:43:53.305Z,14.90
2017-10-03T16:46:20.963Z,14.80
2017-10-03T16:48:49.218Z,14.90
2017-10-03T16:51:16.682Z,14.90
2017-10-03T16:53:44.143Z,14.80
2017-10-03T16:56:11.611Z,14.80
2017-10-03T16:58:39.076Z,14.70
2017-10-03T17:01:07.299Z,14.70
2017-10-03T17:03:34.778Z,14.70
2017-10-03T17:06:02.551Z,14.70
2017-10-03T17:08:30.024Z,14.70
2017-10-03T17:10:57.486Z,14.70
2017-10-03T17:13:25.749Z,14.50
2017-10-03T17:15:53.681Z,14.50
2017-10-03T17:18:21.488Z,14.50
2017-10-03T17:20:49.727Z,14.50
2017-10-03T17:23:17.207Z,14.50
2017-10-03T17:25:44.675Z,14.50
2017-10-03T17:28:12.908Z,14.40
2017-10-03T17:30:40.380Z,14.40
2017-10-03T17:33:07.924Z,14.40
2017-10-03T17:35:35.449Z,14.40
2017-10-03T17:38:02.895Z,14.30
2017-10-03T17:40:31.148Z,14.30
2017-10-03T17:42:59.380Z,14.20
2017-10-03T17:45:26.875Z,14.20
2017-10-03T17:47:55.176Z,14.20
2017-10-03T17:50:23.407Z,14.20
2017-10-03T17:52:50.888Z,14.10
2017-10-03T17:55:18.362Z,14.20
2017-10-03T17:57:46.632Z,14.10
2017-10-03T18:00:14.892Z,14.00
2017-10-03T18:02:42.372Z,14.00
2017-10-03T18:05:10.634Z,14.00
2017-10-03T18:07:38.880Z,14.00
2017-10-03T18:10:06.659Z,14.00
2017-10-03T18:12:34.124Z,14.00
2017-10-03T18:15:01.583Z,14.00
2017-10-03T18:17:29.940Z,14.00
2017-10-03T18:19:57.403Z,14.00
2017-10-03T18:22:24.863Z,14.00
2017-10-03T18:24:52.418Z,14.00
2017-10-03T18:27:19.883Z,14.00
2017-10-03T18:29:47.339Z,14.00
2017-10-03T18:32:14.836Z,13.90
2017-10-03T18:34:42.298Z,13.90
2017-10-03T18:37:09.802Z,13.90
2017-10-03T18:39:37.285Z,13.90
2017-10-03T18:42:05.514Z,13.90
2017-10-03T18:44:32.999Z,13.90
2017-10-03T18:47:00.472Z,13.90
2017-10-03T18:49:28.732Z,13.90
2017-10-03T18:51:56.253Z,13.90
2017-10-03T18:54:23.716Z,13.90
2017-10-03T18:56:51.189Z,14.00
2017-10-03T18:59:18.656Z,14.00
2017-10-03T19:01:46.131Z,13.90
2017-10-03T19:04:14.379Z,13.90
2017-10-03T19:06:41.848Z,13.90
2017-10-03T19:09:11.568Z,13.80
2017-10-03T19:11:39.820Z,13.80
2017-10-03T19:14:07.903Z,13.80
2017-10-03T19:16:36.490Z,13.70
2017-10-03T19:19:03.952Z,13.70
2017-10-03T19:21:31.418Z,13.70
2017-10-03T19:23:59.934Z,13.70
2017-10-03T19:26:27.399Z,13.70
2017-10-03T19:28:54.863Z,13.70
2017-10-03T19:31:22.332Z,13.70
2017-10-03T19:33:49.801Z,13.70
2017-10-03T19:36:17.264Z,13.80
2017-10-03T19:38:45.033Z,13.70
2017-10-03T19:41:12.593Z,13.70
2017-10-03T19:43:40.172Z,13.60
2017-10-03T19:46:08.404Z,13.60
2017-10-03T19:48:36.767Z,13.60
2017-10-03T19:51:04.227Z,13.70
2017-10-03T19:53:31.703Z,13.70
2017-10-03T19:55:59.162Z,13.60
2017-10-03T19:58:26.631Z,13.60
2017-10-03T20:00:54.910Z,13.70
2017-10-03T20:03:22.461Z,13.70
2017-10-03T20:05:49.925Z,13.70
2017-10-03T20:08:17.399Z,13.60
2017-10-03T20:10:45.638Z,13.60
2017-10-03T20:13:13.103Z,13.60
2017-10-03T20:15:42.967Z,13.60
2017-10-03T20:18:10.560Z,13.60
2017-10-03T20:20:38.088Z,13.50
2017-10-03T20:23:05.563Z,13.50
2017-10-03T20:25:33.022Z,13.50
2017-10-03T20:28:00.658Z,13.60
2017-10-03T20:30:29.487Z,13.60
2017-10-03T20:32:57.721Z,13.60
2017-10-03T20:35:25.474Z,13.60
2017-10-03T20:37:52.928Z,13.60
2017-10-03T20:40:21.395Z,13.60
2017-10-03T20:42:49.626Z,13.60
2017-10-03T20:45:17.125Z,13.60
2017-10-03T20:47:44.668Z,13.60
2017-10-03T20:50:12.140Z,13.60
2017-10-03T20:52:43.420Z,13.60
2017-10-03T20:55:10.903Z,13.60
2017-10-03T20:57:38.379Z,13.60
2017-10-03T21:00:05.860Z,13.60
2017-10-03T21:02:34.094Z,13.60
2017-10-03T21:05:01.573Z,13.60
2017-10-03T21:07:29.049Z,13.60
2017-10-03T21:09:57.296Z,13.50
2017-10-03T21:12:25.763Z,13.50
2017-10-03T21:14:53.239Z,13.50
2017-10-03T21:17:21.046Z,13.50
2017-10-03T21:19:48.557Z,13.60
2017-10-03T21:22:16.091Z,13.60
2017-10-03T21:24:43.631Z,13.50
2017-10-03T21:27:11.203Z,13.50
2017-10-03T21:29:38.661Z,13.50
2017-10-03T21:32:06.168Z,13.50
2017-10-03T21:34:34.395Z,13.50
2017-10-03T21:37:01.871Z,13.50
2017-10-03T21:39:30.856Z,13.50
2017-10-03T21:42:10.227Z,13.50
2017-10-03T21:44:39.511Z,13.50
2017-10-03T21:47:06.967Z,13.50
2017-10-03T21:49:34.528Z,13.50
2017-10-03T21:52:01.991Z,13.50
2017-10-03T21:54:30.384Z,13.50
2017-10-03T21:56:58.623Z,13.60
2017-10-03T21:59:26.099Z,13.60
2017-10-03T22:01:53.565Z,13.60
2017-10-03T22:04:21.801Z,13.60
2017-10-03T22:06:49.265Z,13.60
2017-10-03T22:09:16.727Z,13.60
2017-10-03T22:11:44.204Z,13.50
2017-10-03T22:14:12.432Z,13.40
2017-10-03T22:16:39.883Z,13.40
2017-10-03T22:19:07.683Z,13.40
2017-10-03T22:21:35.402Z,13.30
2017-10-03T22:24:02.864Z,13.30
2017-10-03T22:26:30.414Z,13.30
2017-10-03T22:28:57.901Z,13.30
2017-10-03T22:31:25.363Z,13.30
2017-10-03T22:33:52.844Z,13.30
2017-10-03T22:36:21.118Z,13.30
2017-10-03T22:38:48.575Z,13.30
2017-10-03T22:41:16.040Z,13.30
2017-10-03T22:43:44.268Z,13.30
2017-10-03T22:46:11.758Z,13.30
2017-10-03T22:48:39.310Z,13.30
2017-10-03T22:51:12.560Z,13.40
2017-10-03T22:53:40.018Z,13.30
2017-10-03T22:56:07.485Z,13.30
2017-10-03T22:58:34.983Z,13.40
2017-10-03T23:01:02.455Z,13.40
2017-10-03T23:03:30.688Z,13.40
2017-10-03T23:05:59.168Z,13.40
2017-10-03T23:08:27.369Z,13.40
2017-10-03T23:10:54.827Z,13.40
2017-10-03T23:13:22.278Z,13.50
2017-10-03T23:15:49.763Z,13.40
2017-10-03T23:18:17.991Z,13.50
2017-10-03T23:20:45.456Z,13.50
2017-10-03T23:23:12.936Z,13.50
2017-10-03T23:25:41.168Z,13.50
2017-10-03T23:28:08.635Z,13.50
2017-10-03T23:30:36.123Z,13.50
2017-10-03T23:33:04.371Z,13.50
2017-10-03T23:35:31.853Z,13.50
2017-10-03T23:37:59.405Z,13.50
2017-10-03T23:40:26.870Z,13.50
2017-10-03T23:42:55.320Z,13.50
2017-10-03T23:45:22.784Z,13.50
2017-10-03T23:47:50.255Z,13.50
2017-10-03T23:50:17.707Z,13.50
2017-10-03T23:52:45.181Z,13.50
2017-10-03T23:55:13.407Z,13.50
2017-10-03T23:57:40.878Z,13.50
